createdAt,value
2023-02-11T00:00:41.433Z,34.60
2023-02-11T00:01:42.582Z,34.20
2023-02-11T00:02:42.779Z,34.80
2023-02-11T00:03:43.604Z,34.50
2023-02-11T00:04:44.268Z,35.60
2023-02-11T00:05:44.986Z,34.90
2023-02-11T00:06:45.681Z,35.20
2023-02-11T00:07:46.386Z,35.10
2023-02-11T00:08:47.099Z,35.00
2023-02-11T00:09:47.809Z,35.20
2023-02-11T00:10:48.852Z,35.10
2023-02-11T00:11:49.574Z,35.00
2023-02-11T00:12:49.802Z,34.90
2023-02-11T00:13:50.481Z,35.00
2023-02-11T00:14:51.185Z,35.00
2023-02-11T00:15:52.145Z,35.80
2023-02-11T00:16:52.492Z,34.60
2023-02-11T00:17:53.172Z,35.30
2023-02-11T00:18:53.877Z,35.40
2023-02-11T00:19:54.577Z,35.00
2023-02-11T00:20:55.354Z,34.80
2023-02-11T00:21:55.984Z,33.40
2023-02-11T00:22:56.689Z,34.90
2023-02-11T00:23:57.390Z,36.80
2023-02-11T00:24:58.095Z,34.30
2023-02-11T00:25:58.802Z,34.70
2023-02-11T00:26:59.513Z,35.10
2023-02-11T00:28:00.315Z,34.60
2023-02-11T00:29:00.988Z,35.70
2023-02-11T00:30:01.670Z,35.30
2023-02-11T00:31:02.477Z,34.60
2023-02-11T00:32:03.618Z,35.60
2023-02-11T00:33:03.808Z,34.40
2023-02-11T00:34:04.505Z,34.90
2023-02-11T00:35:05.218Z,35.10
2023-02-11T00:36:05.929Z,34.60
2023-02-11T00:37:06.570Z,35.50
2023-02-11T00:38:07.275Z,35.10
2023-02-11T00:39:07.976Z,34.40
2023-02-11T00:40:08.696Z,33.70
2023-02-11T00:41:09.393Z,34.20
2023-02-11T00:42:10.125Z,34.20
2023-02-11T00:43:10.855Z,34.60
2023-02-11T00:44:11.538Z,34.70
2023-02-11T00:45:12.245Z,33.60
2023-02-11T00:46:13.021Z,34.30
2023-02-11T00:47:14.075Z,34.00
2023-02-11T00:48:14.283Z,33.90
2023-02-11T00:49:14.985Z,33.70
2023-02-11T00:50:15.690Z,33.80
2023-02-11T00:51:16.413Z,33.20
2023-02-11T00:52:17.058Z,33.50
2023-02-11T00:53:17.756Z,33.10
2023-02-11T00:54:18.460Z,34.70
2023-02-11T00:55:19.173Z,33.00
2023-02-11T00:56:19.882Z,32.80
2023-02-11T00:57:21.077Z,32.00
2023-02-11T00:58:21.306Z,32.80
2023-02-11T00:59:21.987Z,33.30
2023-02-11T01:00:22.704Z,32.90
2023-02-11T01:01:23.454Z,32.00
2023-02-11T01:02:24.574Z,32.30
2023-02-11T01:03:24.781Z,32.20
2023-02-11T01:04:25.486Z,33.70
2023-02-11T01:05:26.284Z,31.90
2023-02-11T01:06:26.966Z,32.50
2023-02-11T01:07:28.079Z,31.70
2023-02-11T01:08:28.293Z,32.30
2023-02-11T01:09:29.006Z,30.50
2023-02-11T01:10:29.772Z,30.50
2023-02-11T01:11:30.473Z,30.30
2023-02-11T01:12:32.597Z,31.30
2023-02-11T01:13:32.135Z,29.80
2023-02-11T01:14:32.830Z,30.00
2023-02-11T01:15:33.571Z,30.50
2023-02-11T01:16:34.270Z,31.20
2023-02-11T01:17:34.994Z,30.80
2023-02-11T01:18:35.694Z,30.80
2023-02-11T01:19:36.405Z,31.20
2023-02-11T01:20:37.117Z,30.80
2023-02-11T01:21:38.109Z,31.40
2023-02-11T01:22:39.087Z,30.40
2023-02-11T01:23:39.284Z,30.60
2023-02-11T01:24:39.992Z,29.80
2023-02-11T01:25:40.700Z,29.70
2023-02-11T01:26:41.402Z,29.80
2023-02-11T01:27:42.585Z,30.20
2023-02-11T01:28:42.811Z,29.20
2023-02-11T01:29:43.496Z,29.00
2023-02-11T01:30:44.228Z,29.20
2023-02-11T01:31:44.924Z,29.60
2023-02-11T01:32:45.620Z,28.40
2023-02-11T01:33:46.325Z,28.80
2023-02-11T01:34:47.045Z,28.50
2023-02-11T01:35:47.988Z,28.50
2023-02-11T01:36:48.307Z,29.90
2023-02-11T01:37:48.957Z,29.10
2023-02-11T01:38:49.649Z,28.80
2023-02-11T01:39:50.357Z,28.20
2023-02-11T01:40:51.074Z,27.90
2023-02-11T01:41:51.773Z,29.20
2023-02-11T01:42:53.142Z,27.90
2023-02-11T01:43:53.354Z,28.10
2023-02-11T01:44:54.059Z,27.40
2023-02-11T01:45:54.747Z,27.20
2023-02-11T01:46:55.447Z,28.80
2023-02-11T01:47:56.169Z,27.80
2023-02-11T01:48:56.931Z,27.60
2023-02-11T01:49:57.602Z,28.00
2023-02-11T01:50:58.306Z,27.40
2023-02-11T01:51:59.029Z,28.10
2023-02-11T01:52:59.666Z,27.60
2023-02-11T01:54:00.415Z,27.10
2023-02-11T01:55:01.124Z,28.20
2023-02-11T01:56:01.840Z,26.90
2023-02-11T01:57:02.548Z,27.70
2023-02-11T01:58:03.264Z,27.00
2023-02-11T01:59:03.995Z,27.30
2023-02-11T02:00:04.676Z,28.50
2023-02-11T02:01:05.379Z,29.80
2023-02-11T02:02:06.090Z,30.10
2023-02-11T02:03:06.799Z,30.90
2023-02-11T02:04:07.502Z,30.80
2023-02-11T02:05:08.210Z,31.30
2023-02-11T02:06:08.911Z,32.30
2023-02-11T02:07:09.640Z,35.60
2023-02-11T02:08:10.585Z,36.10
2023-02-11T02:09:10.796Z,36.20
2023-02-11T02:10:11.500Z,37.60
2023-02-11T02:11:12.204Z,35.50
2023-02-11T02:12:12.914Z,35.70
2023-02-11T02:13:13.624Z,36.30
2023-02-11T02:14:14.354Z,36.70
2023-02-11T02:15:15.041Z,37.40
2023-02-11T02:16:15.803Z,35.50
2023-02-11T02:17:16.498Z,34.80
2023-02-11T02:18:17.166Z,35.50
2023-02-11T02:19:17.876Z,35.60
2023-02-11T02:20:18.581Z,36.10
2023-02-11T02:21:19.286Z,36.30
2023-02-11T02:22:20.008Z,35.10
2023-02-11T02:23:20.643Z,34.10
2023-02-11T02:24:21.349Z,34.30
2023-02-11T02:25:22.060Z,32.30
2023-02-11T02:26:22.753Z,33.10
2023-02-11T02:27:23.462Z,32.00
2023-02-11T02:28:24.712Z,33.50
2023-02-11T02:29:24.932Z,32.00
2023-02-11T02:30:25.668Z,32.70
2023-02-11T02:31:26.365Z,33.30
2023-02-11T02:32:27.039Z,31.00
2023-02-11T02:33:28.078Z,31.80
2023-02-11T02:34:28.284Z,32.10
2023-02-11T02:35:28.988Z,31.60
2023-02-11T02:36:29.691Z,31.90
2023-02-11T02:37:30.416Z,31.50
2023-02-11T02:38:31.084Z,31.20
2023-02-11T02:39:31.812Z,31.30
2023-02-11T02:40:32.499Z,32.30
2023-02-11T02:41:33.202Z,31.60
2023-02-11T02:42:33.908Z,30.80
2023-02-11T02:43:35.069Z,31.00
2023-02-11T02:44:35.289Z,30.40
2023-02-11T02:45:35.975Z,30.40
2023-02-11T02:46:36.768Z,29.80
2023-02-11T02:47:37.450Z,31.40
2023-02-11T02:48:38.590Z,30.30
2023-02-11T02:49:38.791Z,30.20
2023-02-11T02:50:39.499Z,31.00
2023-02-11T02:51:40.206Z,29.50
2023-02-11T02:52:40.949Z,30.40
2023-02-11T02:53:42.098Z,31.00
2023-02-11T02:54:42.396Z,31.10
2023-02-11T02:55:43.106Z,30.40
2023-02-11T02:56:43.815Z,30.00
2023-02-11T02:57:44.525Z,29.90
2023-02-11T02:58:47.210Z,30.00
2023-02-11T02:59:45.996Z,30.30
2023-02-11T03:00:46.753Z,30.80
2023-02-11T03:01:47.400Z,31.20
2023-02-11T03:02:48.103Z,30.70
2023-02-11T03:03:48.850Z,31.20
2023-02-11T03:04:49.525Z,30.90
2023-02-11T03:05:50.572Z,30.30
2023-02-11T03:06:50.946Z,30.40
2023-02-11T03:07:51.669Z,31.10
2023-02-11T03:08:52.322Z,30.50
2023-02-11T03:09:53.026Z,29.90
2023-02-11T03:10:53.733Z,30.70
2023-02-11T03:11:54.435Z,30.50
2023-02-11T03:12:55.140Z,31.10
2023-02-11T03:13:55.860Z,30.60
2023-02-11T03:14:56.584Z,31.90
2023-02-11T03:15:57.324Z,30.70
2023-02-11T03:16:58.044Z,31.40
2023-02-11T03:17:58.742Z,31.00
2023-02-11T03:18:59.463Z,31.00
2023-02-11T03:20:00.159Z,31.30
2023-02-11T03:21:00.910Z,30.90
2023-02-11T03:22:01.575Z,30.90
2023-02-11T03:23:02.293Z,32.20
2023-02-11T03:24:02.966Z,30.70
2023-02-11T03:25:03.665Z,29.80
2023-02-11T03:26:04.373Z,29.70
2023-02-11T03:27:05.079Z,30.70
2023-02-11T03:28:05.872Z,30.40
2023-02-11T03:29:06.587Z,29.30
2023-02-11T03:30:07.314Z,29.50
2023-02-11T03:31:08.216Z,29.30
2023-02-11T03:32:08.995Z,29.50
2023-02-11T03:33:09.734Z,29.40
2023-02-11T03:34:10.589Z,29.20
2023-02-11T03:35:11.315Z,30.10
2023-02-11T03:36:12.060Z,27.60
2023-02-11T03:37:12.736Z,28.60
2023-02-11T03:38:13.445Z,29.30
2023-02-11T03:39:14.087Z,29.60
2023-02-11T03:40:14.792Z,28.60
2023-02-11T03:41:15.496Z,28.90
2023-02-11T03:42:16.210Z,28.40
2023-02-11T03:43:16.910Z,29.10
2023-02-11T03:44:18.072Z,28.90
2023-02-11T03:45:18.298Z,28.80
2023-02-11T03:46:19.044Z,28.70
2023-02-11T03:47:19.712Z,28.30
2023-02-11T03:48:20.439Z,27.40
2023-02-11T03:49:21.598Z,28.30
2023-02-11T03:50:21.806Z,27.70
2023-02-11T03:51:22.519Z,28.70
2023-02-11T03:52:23.230Z,28.20
2023-02-11T03:53:23.948Z,28.00
2023-02-11T03:54:24.601Z,30.10
2023-02-11T03:55:25.305Z,30.00
2023-02-11T03:56:26.011Z,30.00
2023-02-11T03:57:26.727Z,31.10
2023-02-11T03:58:27.433Z,31.60
2023-02-11T03:59:28.595Z,32.70
2023-02-11T04:00:28.823Z,34.50
2023-02-11T04:01:29.611Z,37.10
2023-02-11T04:02:30.329Z,39.30
2023-02-11T04:03:31.063Z,39.20
2023-02-11T04:04:31.753Z,39.40
2023-02-11T04:05:32.453Z,40.30
2023-02-11T04:06:33.220Z,42.30
2023-02-11T04:07:33.864Z,43.30
2023-02-11T04:08:34.608Z,43.60
2023-02-11T04:09:35.595Z,44.10
2023-02-11T04:10:35.800Z,46.00
2023-02-11T04:11:36.509Z,46.70
2023-02-11T04:12:37.220Z,45.90
2023-02-11T04:13:37.926Z,45.50
2023-02-11T04:14:38.640Z,45.80
2023-02-11T04:15:39.365Z,47.80
2023-02-11T04:16:40.146Z,49.20
2023-02-11T04:17:40.797Z,47.70
2023-02-11T04:18:41.508Z,47.60
2023-02-11T04:19:42.235Z,48.40
2023-02-11T04:20:42.943Z,52.00
2023-02-11T04:21:43.643Z,51.20
2023-02-11T04:22:44.353Z,54.30
2023-02-11T04:23:45.092Z,54.60
2023-02-11T04:24:46.100Z,57.00
2023-02-11T04:25:46.298Z,55.80
2023-02-11T04:26:47.031Z,57.50
2023-02-11T04:27:47.731Z,58.70
2023-02-11T04:28:48.456Z,60.70
2023-02-11T04:29:49.173Z,62.30
2023-02-11T04:30:49.906Z,64.90
2023-02-11T04:31:50.616Z,66.10
2023-02-11T04:32:51.283Z,66.80
2023-02-11T04:33:51.990Z,69.00
2023-02-11T04:34:52.702Z,69.00
2023-02-11T04:35:53.410Z,71.10
2023-02-11T04:36:54.126Z,70.80
2023-02-11T04:37:54.833Z,74.60
2023-02-11T04:38:55.557Z,77.60
2023-02-11T04:39:56.207Z,79.70
2023-02-11T04:40:56.909Z,80.00
2023-02-11T04:41:57.616Z,81.20
2023-02-11T04:42:58.325Z,80.60
2023-02-11T04:43:59.038Z,83.80
2023-02-11T04:45:00.648Z,82.90
2023-02-11T04:46:00.450Z,83.30
2023-02-11T04:47:01.104Z,85.10
2023-02-11T04:48:01.809Z,85.10
2023-02-11T04:49:02.517Z,89.50
2023-02-11T04:50:03.326Z,89.70
2023-02-11T04:51:04.007Z,90.10
2023-02-11T04:52:04.707Z,89.10
2023-02-11T04:53:05.414Z,89.80
2023-02-11T04:54:06.135Z,88.20
2023-02-11T04:55:06.773Z,92.60
2023-02-11T04:56:07.480Z,92.30
2023-02-11T04:57:08.190Z,92.50
2023-02-11T04:58:08.896Z,93.80
2023-02-11T04:59:09.646Z,92.10
2023-02-11T05:00:10.600Z,91.40
2023-02-11T05:01:10.870Z,94.70
2023-02-11T05:02:11.521Z,96.10
2023-02-11T05:03:12.231Z,96.20
2023-02-11T05:04:12.977Z,95.20
2023-02-11T05:05:13.654Z,99.70
2023-02-11T05:06:14.359Z,96.20
2023-02-11T05:07:15.066Z,96.90
2023-02-11T05:08:15.773Z,98.00
2023-02-11T05:09:16.496Z,97.80
2023-02-11T05:10:17.132Z,97.80
2023-02-11T05:11:17.844Z,99.40
2023-02-11T05:12:18.545Z,97.50
2023-02-11T05:13:19.256Z,98.20
2023-02-11T05:14:19.958Z,94.70
2023-02-11T05:15:21.102Z,98.10
2023-02-11T05:16:21.392Z,92.70
2023-02-11T05:17:22.100Z,94.50
2023-02-11T05:18:22.810Z,96.20
2023-02-11T05:19:23.514Z,92.50
2023-02-11T05:20:24.632Z,96.00
2023-02-11T05:21:24.805Z,96.90
2023-02-11T05:22:25.561Z,95.40
2023-02-11T05:23:26.262Z,97.40
2023-02-11T05:24:26.986Z,99.40
2023-02-11T05:25:27.621Z,95.90
2023-02-11T05:26:28.337Z,95.10
2023-02-11T05:27:29.036Z,95.00
2023-02-11T05:28:29.831Z,96.50
2023-02-11T05:29:30.495Z,92.80
2023-02-11T05:30:31.642Z,94.70
2023-02-11T05:31:31.822Z,95.70
2023-02-11T05:32:32.508Z,90.40
2023-02-11T05:33:33.214Z,91.40
2023-02-11T05:34:33.918Z,90.30
2023-02-11T05:35:34.632Z,92.00
2023-02-11T05:36:35.342Z,92.40
2023-02-11T05:37:36.139Z,91.10
2023-02-11T05:38:36.800Z,91.20
2023-02-11T05:39:37.523Z,89.10
2023-02-11T05:40:38.171Z,92.00
2023-02-11T05:41:38.865Z,91.00
2023-02-11T05:42:39.568Z,93.90
2023-02-11T05:43:40.278Z,91.50
2023-02-11T05:44:40.988Z,88.10
2023-02-11T05:45:42.156Z,91.60
2023-02-11T05:46:42.445Z,89.40
2023-02-11T05:47:43.089Z,90.40
2023-02-11T05:48:43.795Z,86.70
2023-02-11T05:49:44.503Z,89.50
2023-02-11T05:50:45.616Z,86.80
2023-02-11T05:51:45.812Z,89.00
2023-02-11T05:52:46.519Z,89.50
2023-02-11T05:53:47.290Z,90.80
2023-02-11T05:54:48.098Z,86.50
2023-02-11T05:55:49.488Z,86.10
2023-02-11T05:56:49.386Z,86.20
2023-02-11T05:57:50.078Z,85.00
2023-02-11T05:58:50.787Z,84.60
2023-02-11T05:59:51.493Z,84.10
2023-02-11T06:00:52.207Z,84.80
2023-02-11T06:01:52.932Z,84.90
2023-02-11T06:02:53.766Z,82.30
2023-02-11T06:03:54.473Z,84.50
2023-02-11T06:04:55.163Z,87.50
2023-02-11T06:05:55.853Z,85.80
2023-02-11T06:06:56.549Z,86.80
2023-02-11T06:07:57.251Z,85.90
2023-02-11T06:08:57.962Z,86.10
2023-02-11T06:09:58.690Z,83.90
2023-02-11T06:10:59.379Z,84.40
2023-02-11T06:12:00.110Z,87.00
2023-02-11T06:13:00.789Z,84.60
2023-02-11T06:14:01.533Z,80.90
2023-02-11T06:15:02.200Z,81.70
2023-02-11T06:16:02.974Z,81.20
2023-02-11T06:17:03.702Z,83.20
2023-02-11T06:18:04.378Z,82.60
2023-02-11T06:19:05.082Z,84.40
2023-02-11T06:20:05.810Z,83.90
2023-02-11T06:21:06.603Z,84.40
2023-02-11T06:22:07.307Z,83.00
2023-02-11T06:23:08.023Z,78.90
2023-02-11T06:24:08.724Z,79.40
2023-02-11T06:25:09.453Z,81.90
2023-02-11T06:26:10.604Z,82.30
2023-02-11T06:27:10.812Z,79.80
2023-02-11T06:28:11.650Z,79.60
2023-02-11T06:29:12.309Z,78.60
2023-02-11T06:30:13.005Z,78.90
2023-02-11T06:31:13.870Z,79.30
2023-02-11T06:32:36.922Z,78.40
2023-02-11T06:33:16.168Z,76.60
2023-02-11T06:34:15.870Z,78.10
2023-02-11T06:35:16.584Z,77.40
2023-02-11T06:36:17.604Z,76.90
2023-02-11T06:37:17.809Z,77.70
2023-02-11T06:38:18.510Z,76.80
2023-02-11T06:39:19.220Z,76.00
2023-02-11T06:40:19.941Z,74.20
2023-02-11T06:41:20.609Z,76.10
2023-02-11T06:42:21.316Z,75.20
2023-02-11T06:43:22.029Z,74.80
2023-02-11T06:44:22.726Z,75.50
2023-02-11T06:45:23.436Z,78.90
2023-02-11T06:46:25.209Z,76.20
2023-02-11T06:47:24.928Z,76.00
2023-02-11T06:48:25.602Z,75.30
2023-02-11T06:49:26.310Z,75.10
2023-02-11T06:50:27.010Z,75.30
2023-02-11T06:51:27.750Z,74.40
2023-02-11T06:52:28.427Z,74.20
2023-02-11T06:53:29.137Z,75.50
2023-02-11T06:54:29.837Z,71.80
2023-02-11T06:55:30.560Z,72.20
2023-02-11T06:56:31.224Z,73.50
2023-02-11T06:57:31.926Z,71.70
2023-02-11T06:58:32.629Z,72.80
2023-02-11T06:59:33.334Z,70.90
2023-02-11T07:00:34.040Z,70.90
2023-02-11T07:01:34.812Z,70.40
2023-02-11T07:02:35.504Z,74.30
2023-02-11T07:03:36.164Z,71.50
2023-02-11T07:04:36.887Z,70.50
2023-02-11T07:05:37.599Z,70.10
2023-02-11T07:06:38.305Z,71.00
2023-02-11T07:07:39.008Z,68.80
2023-02-11T07:08:39.712Z,69.40
2023-02-11T07:09:40.414Z,69.60
2023-02-11T07:10:41.134Z,68.30
2023-02-11T07:11:41.773Z,69.90
2023-02-11T07:12:42.475Z,69.60
2023-02-11T07:13:43.179Z,68.70
2023-02-11T07:14:43.910Z,69.80
2023-02-11T07:15:44.639Z,70.10
2023-02-11T07:16:45.335Z,70.60
2023-02-11T07:17:46.044Z,69.10
2023-02-11T07:18:46.745Z,69.40
2023-02-11T07:19:47.453Z,70.70
2023-02-11T07:20:48.158Z,71.30
2023-02-11T07:21:49.114Z,73.20
2023-02-11T07:22:49.813Z,71.10
2023-02-11T07:23:50.534Z,73.30
2023-02-11T07:24:51.232Z,72.00
2023-02-11T07:25:52.200Z,72.40
2023-02-11T07:26:52.503Z,73.20
2023-02-11T07:27:53.212Z,72.10
2023-02-11T07:28:53.914Z,72.60
2023-02-11T07:29:54.622Z,71.40
2023-02-11T07:30:55.364Z,72.10
2023-02-11T07:31:56.138Z,74.00
2023-02-11T07:32:56.832Z,72.40
2023-02-11T07:33:57.528Z,71.90
2023-02-11T07:34:58.287Z,71.80
2023-02-11T07:35:59.007Z,72.30
2023-02-11T07:37:00.128Z,73.00
2023-02-11T07:38:00.322Z,69.90
2023-02-11T07:39:01.031Z,70.30
2023-02-11T07:40:01.728Z,71.30
2023-02-11T07:41:02.462Z,72.40
2023-02-11T07:42:03.618Z,74.10
2023-02-11T07:43:03.825Z,73.90
2023-02-11T07:44:04.537Z,75.30
2023-02-11T07:45:05.241Z,73.40
2023-02-11T07:46:05.941Z,74.00
2023-02-11T07:47:07.299Z,73.80
2023-02-11T07:48:07.472Z,74.00
2023-02-11T07:49:08.186Z,74.10
2023-02-11T07:50:08.866Z,72.30
2023-02-11T07:51:09.577Z,74.70
2023-02-11T07:52:10.608Z,74.10
2023-02-11T07:53:10.811Z,74.60
2023-02-11T07:54:11.541Z,75.60
2023-02-11T07:55:12.224Z,75.40
2023-02-11T07:56:12.947Z,75.80
2023-02-11T07:57:13.606Z,75.90
2023-02-11T07:58:14.313Z,74.50
2023-02-11T07:59:15.040Z,73.90
2023-02-11T08:00:15.724Z,75.40
2023-02-11T08:01:16.600Z,77.20
2023-02-11T08:02:17.432Z,76.10
2023-02-11T08:03:18.126Z,76.90
2023-02-11T08:04:18.810Z,77.40
2023-02-11T08:05:19.514Z,73.10
2023-02-11T08:06:20.220Z,75.00
2023-02-11T08:07:21.112Z,75.10
2023-02-11T08:08:21.820Z,77.60
2023-02-11T08:09:22.532Z,75.80
2023-02-11T08:10:23.240Z,76.50
2023-02-11T08:11:23.961Z,76.20
2023-02-11T08:12:24.629Z,73.70
2023-02-11T08:13:25.338Z,76.00
2023-02-11T08:14:26.044Z,77.30
2023-02-11T08:15:26.766Z,78.60
2023-02-11T08:16:27.546Z,78.00
2023-02-11T08:17:28.215Z,76.60
2023-02-11T08:18:28.940Z,76.20
2023-02-11T08:19:29.642Z,77.80
2023-02-11T08:20:30.332Z,75.70
2023-02-11T08:21:31.040Z,77.00
2023-02-11T08:22:31.754Z,75.00
2023-02-11T08:23:32.461Z,75.40
2023-02-11T08:24:33.166Z,76.00
2023-02-11T08:25:33.873Z,76.50
2023-02-11T08:26:34.693Z,76.00
2023-02-11T08:27:35.610Z,77.00
2023-02-11T08:28:36.440Z,76.70
2023-02-11T08:29:37.154Z,75.30
2023-02-11T08:30:37.901Z,72.90
2023-02-11T08:31:38.764Z,74.60
2023-02-11T08:32:39.609Z,74.00
2023-02-11T08:33:40.391Z,74.20
2023-02-11T08:34:41.024Z,76.30
2023-02-11T08:35:41.729Z,75.50
2023-02-11T08:36:42.444Z,76.50
2023-02-11T08:37:44.623Z,74.90
2023-02-11T08:38:43.756Z,75.30
2023-02-11T08:39:44.453Z,74.40
2023-02-11T08:40:45.161Z,75.40
2023-02-11T08:41:45.890Z,75.20
2023-02-11T08:42:46.579Z,73.30
2023-02-11T08:43:47.290Z,73.40
2023-02-11T08:44:47.986Z,75.60
2023-02-11T08:45:49.213Z,74.30
2023-02-11T08:46:49.535Z,76.90
2023-02-11T08:47:50.618Z,76.40
2023-02-11T08:48:50.841Z,74.70
2023-02-11T08:49:51.534Z,74.30
2023-02-11T08:50:52.245Z,72.80
2023-02-11T08:51:52.952Z,72.60
2023-02-11T08:52:54.111Z,72.20
2023-02-11T08:53:54.317Z,74.90
2023-02-11T08:54:55.024Z,73.70
2023-02-11T08:55:55.765Z,75.90
2023-02-11T08:56:56.487Z,76.10
2023-02-11T08:57:57.609Z,73.20
2023-02-11T08:58:57.822Z,73.80
2023-02-11T08:59:58.540Z,71.00
2023-02-11T09:00:59.257Z,68.90
2023-02-11T09:02:00.154Z,71.80
2023-02-11T09:03:01.113Z,70.80
2023-02-11T09:04:01.343Z,70.30
2023-02-11T09:05:02.031Z,72.70
2023-02-11T09:06:02.737Z,72.60
2023-02-11T09:07:03.466Z,72.60
2023-02-11T09:08:04.609Z,70.70
2023-02-11T09:09:04.822Z,72.20
2023-02-11T09:10:05.525Z,70.70
2023-02-11T09:11:06.260Z,70.40
2023-02-11T09:12:06.962Z,71.90
2023-02-11T09:13:07.611Z,70.00
2023-02-11T09:14:08.319Z,70.50
2023-02-11T09:15:09.038Z,72.80
2023-02-11T09:16:09.739Z,73.20
2023-02-11T09:17:10.452Z,70.80
2023-02-11T09:18:11.612Z,73.10
2023-02-11T09:19:11.851Z,69.60
2023-02-11T09:20:12.537Z,73.80
2023-02-11T09:21:13.233Z,66.70
2023-02-11T09:22:13.949Z,70.20
2023-02-11T09:23:17.622Z,68.00
2023-02-11T09:24:15.197Z,69.40
2023-02-11T09:25:15.898Z,67.50
2023-02-11T09:26:16.610Z,67.30
2023-02-11T09:27:17.338Z,69.20
2023-02-11T09:28:18.014Z,67.00
2023-02-11T09:29:18.685Z,64.40
2023-02-11T09:30:19.423Z,67.20
2023-02-11T09:31:20.297Z,68.50
2023-02-11T09:32:20.986Z,66.90
2023-02-11T09:33:21.698Z,66.40
2023-02-11T09:34:22.427Z,64.80
2023-02-11T09:35:23.116Z,63.40
2023-02-11T09:36:23.827Z,64.80
2023-02-11T09:37:24.537Z,63.00
2023-02-11T09:38:25.260Z,63.70
2023-02-11T09:39:25.954Z,65.30
2023-02-11T09:40:26.663Z,65.00
2023-02-11T09:41:27.381Z,64.20
2023-02-11T09:42:28.095Z,62.70
2023-02-11T09:43:28.730Z,66.40
2023-02-11T09:44:29.438Z,65.70
2023-02-11T09:45:30.156Z,64.20
2023-02-11T09:46:30.897Z,65.20
2023-02-11T09:47:31.626Z,65.40
2023-02-11T09:48:32.630Z,64.20
2023-02-11T09:49:32.851Z,61.60
2023-02-11T09:50:33.550Z,64.70
2023-02-11T09:51:34.253Z,61.40
2023-02-11T09:52:34.954Z,64.00
2023-02-11T09:53:36.116Z,64.20
2023-02-11T09:54:36.326Z,63.90
2023-02-11T09:55:37.033Z,63.90
2023-02-11T09:56:37.757Z,63.60
2023-02-11T09:57:38.466Z,63.00
2023-02-11T09:58:39.621Z,64.00
2023-02-11T09:59:39.849Z,62.80
2023-02-11T10:00:40.561Z,64.00
2023-02-11T10:01:41.317Z,64.40
2023-02-11T10:02:41.966Z,64.40
2023-02-11T10:03:43.127Z,63.90
2023-02-11T10:04:43.448Z,66.40
2023-02-11T10:05:44.112Z,65.70
2023-02-11T10:06:44.844Z,63.90
2023-02-11T10:07:45.559Z,63.70
2023-02-11T10:08:46.617Z,62.70
2023-02-11T10:09:46.856Z,63.80
2023-02-11T10:10:47.573Z,61.50
2023-02-11T10:11:48.244Z,63.50
2023-02-11T10:12:48.974Z,60.10
2023-02-11T10:13:50.138Z,61.80
2023-02-11T10:14:50.333Z,62.80
2023-02-11T10:15:51.139Z,62.00
2023-02-11T10:16:51.795Z,59.90
2023-02-11T10:17:52.563Z,60.30
2023-02-11T10:18:53.624Z,64.10
2023-02-11T10:19:53.846Z,61.70
2023-02-11T10:20:54.531Z,62.70
2023-02-11T10:21:55.261Z,58.70
2023-02-11T10:22:55.951Z,61.60
2023-02-11T10:23:56.673Z,59.70
2023-02-11T10:24:57.372Z,59.30
2023-02-11T10:25:58.077Z,60.00
2023-02-11T10:26:58.785Z,59.70
2023-02-11T10:27:59.601Z,59.10
2023-02-11T10:29:00.633Z,59.00
2023-02-11T10:30:00.847Z,59.40
2023-02-11T10:31:01.738Z,61.60
2023-02-11T10:32:02.524Z,59.30
2023-02-11T10:33:03.223Z,58.10
2023-02-11T10:34:04.124Z,57.60
2023-02-11T10:35:04.862Z,57.80
2023-02-11T10:36:05.572Z,59.90
2023-02-11T10:37:06.255Z,59.70
2023-02-11T10:38:06.970Z,58.20
2023-02-11T10:39:08.123Z,59.30
2023-02-11T10:40:08.331Z,59.70
2023-02-11T10:41:09.035Z,57.20
2023-02-11T10:42:09.743Z,56.80
2023-02-11T10:43:10.465Z,56.00
2023-02-11T10:44:11.139Z,56.40
2023-02-11T10:45:11.851Z,56.10
2023-02-11T10:46:12.632Z,58.30
2023-02-11T10:47:13.271Z,54.10
2023-02-11T10:48:16.446Z,56.10
2023-02-11T10:49:14.692Z,55.20
2023-02-11T10:50:15.408Z,59.50
2023-02-11T10:51:16.102Z,56.60
2023-02-11T10:52:16.795Z,57.10
2023-02-11T10:53:17.504Z,56.40
2023-02-11T10:54:18.622Z,56.40
2023-02-11T10:55:18.833Z,56.90
2023-02-11T10:56:19.548Z,58.50
2023-02-11T10:57:20.254Z,57.00
2023-02-11T10:58:20.984Z,55.70
2023-02-11T10:59:21.775Z,56.60
2023-02-11T11:00:22.426Z,55.00
2023-02-11T11:01:24.948Z,54.50
2023-02-11T11:02:23.759Z,55.40
2023-02-11T11:03:24.484Z,56.10
2023-02-11T11:04:25.206Z,55.30
2023-02-11T11:05:25.930Z,53.90
2023-02-11T11:06:26.607Z,53.50
2023-02-11T11:07:27.316Z,54.00
2023-02-11T11:08:28.024Z,52.30
2023-02-11T11:09:28.735Z,52.90
2023-02-11T11:10:29.448Z,53.70
2023-02-11T11:11:30.146Z,53.80
2023-02-11T11:12:30.851Z,52.60
2023-02-11T11:13:31.575Z,53.20
2023-02-11T11:14:32.651Z,55.00
2023-02-11T11:15:32.868Z,54.90
2023-02-11T11:16:33.579Z,52.30
2023-02-11T11:17:34.282Z,51.20
2023-02-11T11:18:34.988Z,53.30
2023-02-11T11:19:36.129Z,50.80
2023-02-11T11:20:36.355Z,51.90
2023-02-11T11:21:37.047Z,52.50
2023-02-11T11:22:37.752Z,51.90
2023-02-11T11:23:38.463Z,53.90
2023-02-11T11:24:39.185Z,51.30
2023-02-11T11:25:39.884Z,52.30
2023-02-11T11:26:40.602Z,52.20
2023-02-11T11:27:41.297Z,52.00
2023-02-11T11:28:42.030Z,52.40
2023-02-11T11:29:42.670Z,52.10
2023-02-11T11:30:43.423Z,52.00
2023-02-11T11:31:44.158Z,52.60
2023-02-11T11:32:44.805Z,53.10
2023-02-11T11:33:45.505Z,52.20
2023-02-11T11:34:46.218Z,52.70
2023-02-11T11:35:46.944Z,53.00
2023-02-11T11:36:47.629Z,53.30
2023-02-11T11:37:48.336Z,52.00
2023-02-11T11:38:49.043Z,54.20
2023-02-11T11:39:50.125Z,53.20
2023-02-11T11:40:50.641Z,54.10
2023-02-11T11:41:50.940Z,53.90
2023-02-11T11:42:51.653Z,52.30
2023-02-11T11:43:52.380Z,55.80
2023-02-11T11:44:53.030Z,54.60
2023-02-11T11:45:53.744Z,54.60
2023-02-11T11:46:54.462Z,54.90
2023-02-11T11:47:55.145Z,54.70
2023-02-11T11:48:55.849Z,56.30
2023-02-11T11:49:56.591Z,56.60
2023-02-11T11:50:57.302Z,54.60
2023-02-11T11:51:57.984Z,56.90
2023-02-11T11:52:58.689Z,56.00
2023-02-11T11:53:59.392Z,56.10
2023-02-11T11:55:00.142Z,57.80
2023-02-11T11:56:00.839Z,58.00
2023-02-11T11:57:01.545Z,56.60
2023-02-11T11:58:02.242Z,56.60
2023-02-11T11:59:02.967Z,56.00
2023-02-11T12:00:03.624Z,55.70
2023-02-11T12:01:04.331Z,57.30
2023-02-11T12:02:08.111Z,56.30
2023-02-11T12:03:05.635Z,57.90
2023-02-11T12:04:06.341Z,55.80
2023-02-11T12:05:07.121Z,55.60
2023-02-11T12:06:07.862Z,56.80
2023-02-11T12:07:08.537Z,55.60
2023-02-11T12:08:09.277Z,55.90
2023-02-11T12:09:09.962Z,55.80
2023-02-11T12:10:11.130Z,57.50
2023-02-11T12:11:11.332Z,56.80
2023-02-11T12:12:12.050Z,57.60
2023-02-11T12:13:12.754Z,55.90
2023-02-11T12:14:13.479Z,57.90
2023-02-11T12:15:14.200Z,56.70
2023-02-11T12:16:14.925Z,58.10
2023-02-11T12:17:15.603Z,57.20
2023-02-11T12:18:16.334Z,58.00
2023-02-11T12:19:17.033Z,58.80
2023-02-11T12:20:17.748Z,57.00
2023-02-11T12:21:18.495Z,58.80
2023-02-11T12:22:19.164Z,58.30
2023-02-11T12:23:19.868Z,57.70
2023-02-11T12:24:20.581Z,58.80
2023-02-11T12:25:21.628Z,59.10
2023-02-11T12:26:21.854Z,58.00
2023-02-11T12:27:22.566Z,59.00
2023-02-11T12:28:23.352Z,57.20
2023-02-11T12:29:24.082Z,60.00
2023-02-11T12:30:25.132Z,58.70
2023-02-11T12:31:25.534Z,58.10
2023-02-11T12:32:26.250Z,58.20
2023-02-11T12:33:26.954Z,59.00
2023-02-11T12:34:27.664Z,58.40
2023-02-11T12:35:28.376Z,58.50
2023-02-11T12:36:29.099Z,56.50
2023-02-11T12:37:29.804Z,58.20
2023-02-11T12:38:30.493Z,58.80
2023-02-11T12:39:31.203Z,59.40
2023-02-11T12:40:31.917Z,58.60
2023-02-11T12:41:32.621Z,58.00
2023-02-11T12:42:33.328Z,57.60
2023-02-11T12:43:34.036Z,56.50
2023-02-11T12:44:34.755Z,58.70
2023-02-11T12:45:35.448Z,59.20
2023-02-11T12:46:36.115Z,58.40
2023-02-11T12:47:36.814Z,58.30
2023-02-11T12:48:37.522Z,61.60
2023-02-11T12:49:38.226Z,59.20
2023-02-11T12:50:38.955Z,57.70
2023-02-11T12:51:39.676Z,59.60
2023-02-11T12:52:40.359Z,59.40
2023-02-11T12:53:41.066Z,58.30
2023-02-11T12:54:41.767Z,60.00
2023-02-11T12:55:42.480Z,60.20
2023-02-11T12:56:43.186Z,60.50
2023-02-11T12:57:43.889Z,60.10
2023-02-11T12:58:45.841Z,59.90
2023-02-11T12:59:45.120Z,58.60
2023-02-11T13:00:46.158Z,60.40
2023-02-11T13:01:46.360Z,58.80